sensor_id;sensor_type;location;lat;lon;timestamp;pressure;altitude;pressure_sealevel;temperature;humidity
52839;BME280;39219;53.678;9.856;2024-02-14T00:01:12;101546.78;;;5.01;80.18
52839;BME280;39219;53.678;9.856;2024-02-14T00:03:39;101546.91;;;4.91;80.78
52839;BME280;39219;53.678;9.856;2024-02-14T00:06:06;101540.84;;;4.81;80.94
52839;BME280;39219;53.678;9.856;2024-02-14T00:08:32;101539.16;;;4.73;81.51
52839;BME280;39219;53.678;9.856;2024-02-14T00:10:59;101543.63;;;4.66;81.53
52839;BME280;39219;53.678;9.856;2024-02-14T00:13:25;101540.16;;;4.64;81.97
52839;BME280;39219;53.678;9.856;2024-02-14T00:15:52;101537.56;;;4.58;81.78
52839;BME280;39219;53.678;9.856;2024-02-14T00:18:20;101530.50;;;4.59;82.07
52839;BME280;39219;53.678;9.856;2024-02-14T00:20:48;101530.44;;;4.68;81.51
52839;BME280;39219;53.678;9.856;2024-02-14T00:23:14;101523.50;;;4.58;81.55
52839;BME280;39219;53.678;9.856;2024-02-14T00:25:41;101526.13;;;4.59;81.78
52839;BME280;39219;53.678;9.856;2024-02-14T00:28:07;101535.78;;;4.60;81.93
52839;BME280;39219;53.678;9.856;2024-02-14T00:30:33;101532.25;;;4.61;82.03
52839;BME280;39219;53.678;9.856;2024-02-14T00:33:00;101525.25;;;4.60;82.00
52839;BME280;39219;53.678;9.856;2024-02-14T00:35:28;101526.94;;;4.67;81.77
52839;BME280;39219;53.678;9.856;2024-02-14T00:37:55;101527.72;;;4.75;81.46
52839;BME280;39219;53.678;9.856;2024-02-14T00:40:21;101522.47;;;4.75;81.57
52839;BME280;39219;53.678;9.856;2024-02-14T00:42:47;101518.00;;;4.80;81.17
52839;BME280;39219;53.678;9.856;2024-02-14T00:45:14;101523.34;;;4.76;81.29
52839;BME280;39219;53.678;9.856;2024-02-14T00:47:40;101518.84;;;4.84;81.27
52839;BME280;39219;53.678;9.856;2024-02-14T00:50:07;101525.00;;;4.84;81.19
52839;BME280;39219;53.678;9.856;2024-02-14T00:52:35;101515.31;;;4.86;81.11
52839;BME280;39219;53.678;9.856;2024-02-14T00:55:02;101514.41;;;4.90;81.01
52839;BME280;39219;53.678;9.856;2024-02-14T00:57:29;101509.06;;;4.96;81.13
52839;BME280;39219;53.678;9.856;2024-02-14T00:59:55;101515.25;;;4.95;80.79
52839;BME280;39219;53.678;9.856;2024-02-14T01:02:22;101502.91;;;4.97;80.80
52839;BME280;39219;53.678;9.856;2024-02-14T01:04:49;101505.53;;;4.99;80.88
52839;BME280;39219;53.678;9.856;2024-02-14T01:07:15;101507.28;;;4.98;80.92
52839;BME280;39219;53.678;9.856;2024-02-14T01:09:43;101505.47;;;5.05;81.10
52839;BME280;39219;53.678;9.856;2024-02-14T01:12:09;101506.31;;;5.07;80.81
52839;BME280;39219;53.678;9.856;2024-02-14T01:14:36;101495.72;;;5.11;80.81
52839;BME280;39219;53.678;9.856;2024-02-14T01:17:02;101498.34;;;5.11;80.71
52839;BME280;39219;53.678;9.856;2024-02-14T01:19:29;101487.81;;;5.10;81.07
52839;BME280;39219;53.678;9.856;2024-02-14T01:21:56;101498.34;;;5.11;81.16
52839;BME280;39219;53.678;9.856;2024-02-14T01:24:23;101491.28;;;5.16;81.30
52839;BME280;39219;53.678;9.856;2024-02-14T01:26:53;101486.00;;;5.13;81.96
52839;BME280;39219;53.678;9.856;2024-02-14T01:29:20;101487.78;;;5.14;82.18
52839;BME280;39219;53.678;9.856;2024-02-14T01:31:47;101486.97;;;5.08;83.01
52839;BME280;39219;53.678;9.856;2024-02-14T01:34:14;101476.41;;;5.09;83.52
52839;BME280;39219;53.678;9.856;2024-02-14T01:36:40;101478.19;;;5.07;84.20
52839;BME280;39219;53.678;9.856;2024-02-14T01:39:07;101472.94;;;5.04;84.66
52839;BME280;39219;53.678;9.856;2024-02-14T01:41:36;101475.63;;;5.03;85.17
52839;BME280;39219;53.678;9.856;2024-02-14T01:44:04;101466.84;;;4.99;85.58
52839;BME280;39219;53.678;9.856;2024-02-14T01:46:30;101469.50;;;4.98;86.44
52839;BME280;39219;53.678;9.856;2024-02-14T01:48:57;101466.88;;;4.98;86.30
52839;BME280;39219;53.678;9.856;2024-02-14T01:51:24;101469.53;;;4.95;86.65
52839;BME280;39219;53.678;9.856;2024-02-14T01:53:51;101460.81;;;4.91;87.41
52839;BME280;39219;53.678;9.856;2024-02-14T01:56:18;101459.94;;;4.88;87.75
52839;BME280;39219;53.678;9.856;2024-02-14T01:58:44;101463.50;;;4.85;88.16
52839;BME280;39219;53.678;9.856;2024-02-14T02:01:12;101454.75;;;4.83;88.32
52839;BME280;39219;53.678;9.856;2024-02-14T02:03:39;101460.03;;;4.80;88.64
52839;BME280;39219;53.678;9.856;2024-02-14T02:06:07;101458.31;;;4.78;89.10
52839;BME280;39219;53.678;9.856;2024-02-14T02:08:34;101460.06;;;4.79;89.22
52839;BME280;39219;53.678;9.856;2024-02-14T02:11:01;101455.66;;;4.79;89.26
52839;BME280;39219;53.678;9.856;2024-02-14T02:13:27;101455.69;;;4.78;89.36
52839;BME280;39219;53.678;9.856;2024-02-14T02:15:54;101445.13;;;4.79;89.79
52839;BME280;39219;53.678;9.856;2024-02-14T02:18:21;101441.59;;;4.80;89.95
52839;BME280;39219;53.678;9.856;2024-02-14T02:20:48;101443.34;;;4.78;90.15
52839;BME280;39219;53.678;9.856;2024-02-14T02:23:16;101438.09;;;4.78;90.16
52839;BME280;39219;53.678;9.856;2024-02-14T02:25:42;101430.19;;;4.80;90.44
52839;BME280;39219;53.678;9.856;2024-02-14T02:28:09;101424.00;;;4.82;90.01
52839;BME280;39219;53.678;9.856;2024-02-14T02:30:36;101424.03;;;4.79;90.36
52839;BME280;39219;53.678;9.856;2024-02-14T02:33:03;101421.38;;;4.81;90.44
52839;BME280;39219;53.678;9.856;2024-02-14T02:35:30;101424.91;;;4.80;90.70
52839;BME280;39219;53.678;9.856;2024-02-14T02:37:56;101420.50;;;4.80;91.07
52839;BME280;39219;53.678;9.856;2024-02-14T02:40:25;101417.88;;;4.80;91.07
52839;BME280;39219;53.678;9.856;2024-02-14T02:42:52;101409.94;;;4.83;91.11
52839;BME280;39219;53.678;9.856;2024-02-14T02:45:19;101406.44;;;4.81;91.10
52839;BME280;39219;53.678;9.856;2024-02-14T02:47:45;101407.34;;;4.79;91.04
52839;BME280;39219;53.678;9.856;2024-02-14T02:50:13;101403.84;;;4.78;91.24
52839;BME280;39219;53.678;9.856;2024-02-14T02:52:39;101385.38;;;4.78;91.32
52839;BME280;39219;53.678;9.856;2024-02-14T02:55:07;101396.84;;;4.77;91.28
52839;BME280;39219;53.678;9.856;2024-02-14T02:57:34;101389.78;;;4.76;91.37
52839;BME280;39219;53.678;9.856;2024-02-14T03:00:02;101388.00;;;4.81;91.32
52839;BME280;39219;53.678;9.856;2024-02-14T03:02:30;101390.69;;;4.75;91.55
52839;BME280;39219;53.678;9.856;2024-02-14T03:04:56;101390.72;;;4.74;91.71
52839;BME280;39219;53.678;9.856;2024-02-14T03:07:24;101394.22;;;4.76;91.54
52839;BME280;39219;53.678;9.856;2024-02-14T03:09:50;101387.16;;;4.78;91.69
52839;BME280;39219;53.678;9.856;2024-02-14T03:12:17;101391.56;;;4.74;91.77
52839;BME280;39219;53.678;9.856;2024-02-14T03:14:45;101388.06;;;4.75;91.78
52839;BME280;39219;53.678;9.856;2024-02-14T03:17:12;101386.31;;;4.74;91.89
52839;BME280;39219;53.678;9.856;2024-02-14T03:19:40;101384.59;;;4.70;91.61
52839;BME280;39219;53.678;9.856;2024-02-14T03:22:06;101380.19;;;4.72;91.85
52839;BME280;39219;53.678;9.856;2024-02-14T03:24:34;101378.44;;;4.71;91.94
52839;BME280;39219;53.678;9.856;2024-02-14T03:27:02;101376.72;;;4.69;92.05
52839;BME280;39219;53.678;9.856;2024-02-14T03:29:30;101374.06;;;4.72;92.07
52839;BME280;39219;53.678;9.856;2024-02-14T03:31:58;101366.19;;;4.67;91.90
52839;BME280;39219;53.678;9.856;2024-02-14T03:34:29;101362.72;;;4.65;92.06
52839;BME280;39219;53.678;9.856;2024-02-14T03:36:58;101363.63;;;4.64;92.10
52839;BME280;39219;53.678;9.856;2024-02-14T03:39:24;101353.94;;;4.65;92.16
52839;BME280;39219;53.678;9.856;2024-02-14T03:41:51;101355.78;;;4.58;92.12
52839;BME280;39219;53.678;9.856;2024-02-14T03:44:18;101355.78;;;4.57;92.07
52839;BME280;39219;53.678;9.856;2024-02-14T03:46:44;101354.00;;;4.60;92.26
52839;BME280;39219;53.678;9.856;2024-02-14T03:49:14;101347.00;;;4.54;92.21
52839;BME280;39219;53.678;9.856;2024-02-14T03:51:40;101344.38;;;4.54;92.20
52839;BME280;39219;53.678;9.856;2024-02-14T03:54:07;101340.00;;;4.55;92.31
52839;BME280;39219;53.678;9.856;2024-02-14T03:56:33;101344.28;;;4.65;92.34
52839;BME280;39219;53.678;9.856;2024-02-14T03:59:00;101346.09;;;4.60;92.29
52839;BME280;39219;53.678;9.856;2024-02-14T04:01:28;101336.47;;;4.58;92.30
52839;BME280;39219;53.678;9.856;2024-02-14T04:03:56;101339.13;;;4.54;92.28
52839;BME280;39219;53.678;9.856;2024-02-14T04:06:24;101336.44;;;4.59;92.35
52839;BME280;39219;53.678;9.856;2024-02-14T04:08:52;101332.97;;;4.56;92.35
52839;BME280;39219;53.678;9.856;2024-02-14T04:11:18;101325.03;;;4.57;92.30
52839;BME280;39219;53.678;9.856;2024-02-14T04:13:44;101323.28;;;4.58;92.60
52839;BME280;39219;53.678;9.856;2024-02-14T04:16:11;101327.72;;;4.54;92.45
52839;BME280;39219;53.678;9.856;2024-02-14T04:18:38;101330.38;;;4.54;92.35
52839;BME280;39219;53.678;9.856;2024-02-14T04:21:07;101333.91;;;4.50;92.53
52839;BME280;39219;53.678;9.856;2024-02-14T04:23:35;101324.25;;;4.52;92.52
52839;BME280;39219;53.678;9.856;2024-02-14T04:26:01;101320.75;;;4.50;92.89
52839;BME280;39219;53.678;9.856;2024-02-14T04:28:28;101311.06;;;4.52;92.68
52839;BME280;39219;53.678;9.856;2024-02-14T04:30:54;101311.91;;;4.52;92.64
52839;BME280;39219;53.678;9.856;2024-02-14T04:33:21;101312.88;;;4.47;92.74
52839;BME280;39219;53.678;9.856;2024-02-14T04:35:48;101319.00;;;4.49;92.56
52839;BME280;39219;53.678;9.856;2024-02-14T04:38:14;101311.97;;;4.49;92.92
52839;BME280;39219;53.678;9.856;2024-02-14T04:40:42;101312.00;;;4.45;93.03
52839;BME280;39219;53.678;9.856;2024-02-14T04:43:09;101300.56;;;4.47;92.74
52839;BME280;39219;53.678;9.856;2024-02-14T04:45:35;101305.84;;;4.47;92.82
52839;BME280;39219;53.678;9.856;2024-02-14T04:48:02;101297.91;;;4.49;92.94
52839;BME280;39219;53.678;9.856;2024-02-14T04:50:29;101294.34;;;4.53;92.91
52839;BME280;39219;53.678;9.856;2024-02-14T04:52:56;101293.47;;;4.52;92.73
52839;BME280;39219;53.678;9.856;2024-02-14T04:55:22;101287.38;;;4.50;92.98
52839;BME280;39219;53.678;9.856;2024-02-14T04:57:50;101280.31;;;4.54;93.11
52839;BME280;39219;53.678;9.856;2024-02-14T05:00:17;101283.81;;;4.53;93.07
52839;BME280;39219;53.678;9.856;2024-02-14T05:02:44;101281.25;;;4.50;93.60
52839;BME280;39219;53.678;9.856;2024-02-14T05:05:10;101283.81;;;4.53;93.25
52839;BME280;39219;53.678;9.856;2024-02-14T05:07:37;101278.56;;;4.51;93.26
52839;BME280;39219;53.678;9.856;2024-02-14T05:10:04;101283.84;;;4.51;93.45
52839;BME280;39219;53.678;9.856;2024-02-14T05:12:33;101283.00;;;4.49;93.47
52839;BME280;39219;53.678;9.856;2024-02-14T05:15:00;101279.44;;;4.53;93.34
52839;BME280;39219;53.678;9.856;2024-02-14T05:17:29;101284.69;;;4.53;93.35
52839;BME280;39219;53.678;9.856;2024-02-14T05:19:55;101278.56;;;4.53;93.27
52839;BME280;39219;53.678;9.856;2024-02-14T05:22:22;101280.31;;;4.54;93.76
52839;BME280;39219;53.678;9.856;2024-02-14T05:24:49;101272.34;;;4.57;93.48
52839;BME280;39219;53.678;9.856;2024-02-14T05:27:15;101271.47;;;4.57;93.55
52839;BME280;39219;53.678;9.856;2024-02-14T05:29:41;101276.69;;;4.61;93.90
52839;BME280;39219;53.678;9.856;2024-02-14T05:32:09;101276.72;;;4.60;93.74
52839;BME280;39219;53.678;9.856;2024-02-14T05:34:36;101262.66;;;4.61;93.83
52839;BME280;39219;53.678;9.856;2024-02-14T05:37:02;101271.44;;;4.61;94.04
52839;BME280;39219;53.678;9.856;2024-02-14T05:39:30;101265.25;;;4.64;93.85
52839;BME280;39219;53.678;9.856;2024-02-14T05:41:57;101268.72;;;4.67;93.72
52839;BME280;39219;53.678;9.856;2024-02-14T05:44:23;101268.78;;;4.64;94.01
52839;BME280;39219;53.678;9.856;2024-02-14T05:46:52;101268.72;;;4.67;93.73
52839;BME280;39219;53.678;9.856;2024-02-14T05:49:20;101259.97;;;4.65;93.75
52839;BME280;39219;53.678;9.856;2024-02-14T05:51:46;101263.47;;;4.66;94.00
52839;BME280;39219;53.678;9.856;2024-02-14T05:54:13;101263.44;;;4.67;93.97
52839;BME280;39219;53.678;9.856;2024-02-14T05:56:39;101255.50;;;4.72;94.07
52839;BME280;39219;53.678;9.856;2024-02-14T05:59:06;101254.63;;;4.71;93.89
52839;BME280;39219;53.678;9.856;2024-02-14T06:01:33;101258.97;;;4.72;94.07
52839;BME280;39219;53.678;9.856;2024-02-14T06:03:59;101247.53;;;4.75;94.03
52839;BME280;39219;53.678;9.856;2024-02-14T06:06:27;101250.13;;;4.76;94.06
52839;BME280;39219;53.678;9.856;2024-02-14T06:08:53;101250.16;;;4.75;93.85
52839;BME280;39219;53.678;9.856;2024-02-14T06:11:22;101244.78;;;4.82;94.05
52839;BME280;39219;53.678;9.856;2024-02-14T06:13:49;101243.94;;;4.82;94.20
52839;BME280;39219;53.678;9.856;2024-02-14T06:16:15;101239.50;;;4.85;94.48
52839;BME280;39219;53.678;9.856;2024-02-14T06:18:42;101241.16;;;4.91;94.23
52839;BME280;39219;53.678;9.856;2024-02-14T06:21:09;101235.84;;;4.92;94.15
52839;BME280;39219;53.678;9.856;2024-02-14T06:23:37;101234.97;;;4.93;94.28
52839;BME280;39219;53.678;9.856;2024-02-14T06:26:04;101233.22;;;4.92;93.99
52839;BME280;39219;53.678;9.856;2024-02-14T06:28:30;101234.03;;;4.96;94.08
52839;BME280;39219;53.678;9.856;2024-02-14T06:30:57;101235.69;;;5.01;94.30
52839;BME280;39219;53.678;9.856;2024-02-14T06:33:23;101235.69;;;5.01;94.48
52839;BME280;39219;53.678;9.856;2024-02-14T06:35:50;101236.53;;;5.06;94.30
52839;BME280;39219;53.678;9.856;2024-02-14T06:38:16;101235.63;;;5.07;94.40
52839;BME280;39219;53.678;9.856;2024-02-14T06:40:44;101239.97;;;5.10;94.45
52839;BME280;39219;53.678;9.856;2024-02-14T06:43:11;101244.28;;;5.15;94.27
52839;BME280;39219;53.678;9.856;2024-02-14T06:45:38;101244.25;;;5.17;94.55
52839;BME280;39219;53.678;9.856;2024-02-14T06:48:05;101234.63;;;5.16;94.45
52839;BME280;39219;53.678;9.856;2024-02-14T06:50:33;101242.47;;;5.20;94.69
52839;BME280;39219;53.678;9.856;2024-02-14T06:52:59;101244.22;;;5.20;94.33
52839;BME280;39219;53.678;9.856;2024-02-14T06:55:26;101243.25;;;5.25;94.26
52839;BME280;39219;53.678;9.856;2024-02-14T06:57:54;101242.38;;;5.25;94.31
52839;BME280;39219;53.678;9.856;2024-02-14T07:00:21;101247.63;;;5.28;94.51
52839;BME280;39219;53.678;9.856;2024-02-14T07:02:48;101245.81;;;5.30;94.40
52839;BME280;39219;53.678;9.856;2024-02-14T07:05:14;101244.00;;;5.33;94.55
52839;BME280;39219;53.678;9.856;2024-02-14T07:07:41;101243.06;;;5.37;94.45
52839;BME280;39219;53.678;9.856;2024-02-14T07:10:08;101246.56;;;5.38;94.66
52839;BME280;39219;53.678;9.856;2024-02-14T07:12:35;101243.06;;;5.37;94.66
52839;BME280;39219;53.678;9.856;2024-02-14T07:15:04;101246.56;;;5.38;94.72
52839;BME280;39219;53.678;9.856;2024-02-14T07:17:31;101240.34;;;5.40;94.54
52839;BME280;39219;53.678;9.856;2024-02-14T07:19:58;101245.63;;;5.40;94.60
52839;BME280;39219;53.678;9.856;2024-02-14T07:22:24;101245.63;;;5.40;94.65
52839;BME280;39219;53.678;9.856;2024-02-14T07:24:51;101244.72;;;5.43;94.65
52839;BME280;39219;53.678;9.856;2024-02-14T07:27:19;101251.75;;;5.44;94.64
52839;BME280;39219;53.678;9.856;2024-02-14T07:29:46;101249.97;;;5.44;94.61
52839;BME280;39219;53.678;9.856;2024-02-14T07:32:13;101245.53;;;5.47;94.81
52839;BME280;39219;53.678;9.856;2024-02-14T07:34:40;101251.59;;;5.53;94.60
52839;BME280;39219;53.678;9.856;2024-02-14T07:37:07;101246.28;;;5.55;94.95
52839;BME280;39219;53.678;9.856;2024-02-14T07:39:33;101252.47;;;5.54;94.74
52839;BME280;39219;53.678;9.856;2024-02-14T07:42:01;101244.44;;;5.60;94.67
52839;BME280;39219;53.678;9.856;2024-02-14T07:44:27;101241.81;;;5.60;94.60
52839;BME280;39219;53.678;9.856;2024-02-14T07:46:54;101238.19;;;5.65;94.65
52839;BME280;39219;53.678;9.856;2024-02-14T07:49:22;101246.03;;;5.68;94.42
52839;BME280;39219;53.678;9.856;2024-02-14T07:51:48;101242.59;;;5.65;94.85
52839;BME280;39219;53.678;9.856;2024-02-14T07:54:15;101239.94;;;5.65;94.67
52839;BME280;39219;53.678;9.856;2024-02-14T07:56:41;101234.59;;;5.68;94.90
52839;BME280;39219;53.678;9.856;2024-02-14T07:59:07;101229.22;;;5.75;94.82
52839;BME280;39219;53.678;9.856;2024-02-14T08:01:34;101225.63;;;5.78;94.89
52839;BME280;39219;53.678;9.856;2024-02-14T08:04:00;101238.81;;;5.78;94.94
52839;BME280;39219;53.678;9.856;2024-02-14T08:06:28;101237.03;;;5.80;94.95
52839;BME280;39219;53.678;9.856;2024-02-14T08:08:55;101234.31;;;5.86;95.04
52839;BME280;39219;53.678;9.856;2024-02-14T08:11:26;101235.13;;;5.91;94.83
52839;BME280;39219;53.678;9.856;2024-02-14T08:13:54;101229.88;;;5.88;95.03
52839;BME280;39219;53.678;9.856;2024-02-14T08:16:20;101229.75;;;5.94;95.18
52839;BME280;39219;53.678;9.856;2024-02-14T08:18:47;101232.22;;;6.03;95.19
52839;BME280;39219;53.678;9.856;2024-02-14T08:21:14;101229.50;;;6.07;94.90
52839;BME280;39219;53.678;9.856;2024-02-14T08:23:42;101225.94;;;6.10;94.90
52839;BME280;39219;53.678;9.856;2024-02-14T08:26:08;101226.78;;;6.12;95.27
52839;BME280;39219;53.678;9.856;2024-02-14T08:28:35;101223.19;;;6.14;95.01
52839;BME280;39219;53.678;9.856;2024-02-14T08:31:02;101222.22;;;6.18;94.84
52839;BME280;39219;53.678;9.856;2024-02-14T08:33:28;101223.00;;;6.23;95.06
52839;BME280;39219;53.678;9.856;2024-02-14T08:35:55;101225.63;;;6.25;95.22
52839;BME280;39219;53.678;9.856;2024-02-14T08:38:22;101235.09;;;6.35;95.00
52839;BME280;39219;53.678;9.856;2024-02-14T08:40:50;101233.34;;;6.34;95.32
52839;BME280;39219;53.678;9.856;2024-02-14T08:43:17;101226.97;;;6.44;95.08
52839;BME280;39219;53.678;9.856;2024-02-14T08:45:43;101233.97;;;6.47;94.99
52839;BME280;39219;53.678;9.856;2024-02-14T08:48:10;101232.16;;;6.49;95.16
52839;BME280;39219;53.678;9.856;2024-02-14T08:50:36;101235.63;;;6.52;95.21
52839;BME280;39219;53.678;9.856;2024-02-14T08:53:03;101231.22;;;6.53;95.27
52839;BME280;39219;53.678;9.856;2024-02-14T08:55:29;101240.00;;;6.53;95.19
52839;BME280;39219;53.678;9.856;2024-02-14T08:57:59;101238.03;;;6.63;95.21
52839;BME280;39219;53.678;9.856;2024-02-14T09:00:26;101238.03;;;6.61;95.44
52839;BME280;39219;53.678;9.856;2024-02-14T09:02:52;101239.75;;;6.64;95.40
52839;BME280;39219;53.678;9.856;2024-02-14T09:05:19;101239.66;;;6.68;95.19
52839;BME280;39219;53.678;9.856;2024-02-14T09:07:47;101230.59;;;6.80;95.45
52839;BME280;39219;53.678;9.856;2024-02-14T09:10:13;101238.44;;;6.83;95.37
52839;BME280;39219;53.678;9.856;2024-02-14T09:12:40;101240.19;;;6.84;95.55
52839;BME280;39219;53.678;9.856;2024-02-14T09:15:09;101238.53;;;6.80;95.43
52839;BME280;39219;53.678;9.856;2024-02-14T09:17:37;101246.25;;;6.89;95.50
52839;BME280;39219;53.678;9.856;2024-02-14T09:20:04;101239.16;;;6.91;95.55
52839;BME280;39219;53.678;9.856;2024-02-14T09:22:31;101243.56;;;6.92;95.48
52839;BME280;39219;53.678;9.856;2024-02-14T09:24:59;101247.03;;;6.94;95.74
52839;BME280;39219;53.678;9.856;2024-02-14T09:27:25;101245.09;;;7.00;95.46
52839;BME280;39219;53.678;9.856;2024-02-14T09:29:52;101243.38;;;6.99;95.66
52839;BME280;39219;53.678;9.856;2024-02-14T09:32:19;101236.03;;;7.10;95.64
52839;BME280;39219;53.678;9.856;2024-02-14T09:34:46;101245.66;;;7.14;96.09
52839;BME280;39219;53.678;9.856;2024-02-14T09:37:13;101245.50;;;7.20;95.60
52839;BME280;39219;53.678;9.856;2024-02-14T09:39:39;101246.34;;;7.22;95.44
52839;BME280;39219;53.678;9.856;2024-02-14T09:42:09;101247.06;;;7.29;95.67
52839;BME280;39219;53.678;9.856;2024-02-14T09:44:37;101245.06;;;7.39;95.68
52839;BME280;39219;53.678;9.856;2024-02-14T09:47:05;101244.03;;;7.44;95.77
52839;BME280;39219;53.678;9.856;2024-02-14T09:49:35;101256.34;;;7.45;95.24
52839;BME280;39219;53.678;9.856;2024-02-14T09:52:02;101248.25;;;7.53;95.37
52839;BME280;39219;53.678;9.856;2024-02-14T09:54:29;101249.81;;;7.60;95.41
52839;BME280;39219;53.678;9.856;2024-02-14T09:56:59;101252.22;;;7.69;95.50
52839;BME280;39219;53.678;9.856;2024-02-14T09:59:26;101246.88;;;7.72;95.50
52839;BME280;39219;53.678;9.856;2024-02-14T10:01:52;101246.72;;;7.76;95.26
52839;BME280;39219;53.678;9.856;2024-02-14T10:04:19;101254.63;;;7.79;95.38
52839;BME280;39219;53.678;9.856;2024-02-14T10:06:48;101254.56;;;7.81;95.45
52839;BME280;39219;53.678;9.856;2024-02-14T10:09:19;101261.69;;;7.79;95.48
52839;BME280;39219;53.678;9.856;2024-02-14T10:11:45;101256.97;;;7.90;95.45
52839;BME280;39219;53.678;9.856;2024-02-14T10:14:12;101261.09;;;8.00;95.52
52839;BME280;39219;53.678;9.856;2024-02-14T10:16:38;101252.28;;;8.01;95.38
52839;BME280;39219;53.678;9.856;2024-02-14T10:19:14;101260.00;;;8.08;95.16
52839;BME280;39219;53.678;9.856;2024-02-14T10:21:40;101247.53;;;8.12;95.41
52839;BME280;39219;53.678;9.856;2024-02-14T10:24:08;101260.50;;;8.23;95.39
52839;BME280;39219;53.678;9.856;2024-02-14T10:26:35;101256.75;;;8.31;95.42
52839;BME280;39219;53.678;9.856;2024-02-14T10:29:02;101258.44;;;8.34;95.17
52839;BME280;39219;53.678;9.856;2024-02-14T10:31:29;101260.94;;;8.40;95.13
52839;BME280;39219;53.678;9.856;2024-02-14T10:33:56;101260.88;;;8.41;95.41
52839;BME280;39219;53.678;9.856;2024-02-14T10:36:22;101261.47;;;8.52;95.20
52839;BME280;39219;53.678;9.856;2024-02-14T10:38:50;101265.44;;;8.67;95.42
52839;BME280;39219;53.678;9.856;2024-02-14T10:41:18;101269.59;;;8.75;95.44
52839;BME280;39219;53.678;9.856;2024-02-14T10:43:45;101269.44;;;8.80;95.09
52839;BME280;39219;53.678;9.856;2024-02-14T10:46:17;101274.09;;;8.73;94.83
52839;BME280;39219;53.678;9.856;2024-02-14T10:48:45;101275.69;;;8.79;95.16
52839;BME280;39219;53.678;9.856;2024-02-14T10:51:12;101276.31;;;8.87;94.96
52839;BME280;39219;53.678;9.856;2024-02-14T10:53:40;101268.31;;;8.88;95.08
52839;BME280;39219;53.678;9.856;2024-02-14T10:56:12;101267.25;;;8.94;95.16
52839;BME280;39219;53.678;9.856;2024-02-14T10:58:44;101272.25;;;9.05;94.90
52839;BME280;39219;53.678;9.856;2024-02-14T11:01:12;101270.44;;;9.05;94.97
52839;BME280;39219;53.678;9.856;2024-02-14T11:03:40;101272.19;;;9.06;95.03
52839;BME280;39219;53.678;9.856;2024-02-14T11:06:07;101268.53;;;9.10;94.84
52839;BME280;39219;53.678;9.856;2024-02-14T11:08:33;101273.88;;;9.09;94.89
52839;BME280;39219;53.678;9.856;2024-02-14T11:11:00;101271.47;;;9.01;94.76
52839;BME280;39219;53.678;9.856;2024-02-14T11:13:28;101273.09;;;9.05;95.00
52839;BME280;39219;53.678;9.856;2024-02-14T11:15:59;101274.91;;;9.05;95.05
52839;BME280;39219;53.678;9.856;2024-02-14T11:18:27;101276.66;;;9.04;94.94
52839;BME280;39219;53.678;9.856;2024-02-14T11:20:55;101270.50;;;9.04;95.20
52839;BME280;39219;53.678;9.856;2024-02-14T11:23:23;101276.66;;;9.04;95.24
52839;BME280;39219;53.678;9.856;2024-02-14T11:25:50;101282.75;;;9.08;95.27
52839;BME280;39219;53.678;9.856;2024-02-14T11:28:17;101278.13;;;9.14;95.57
52839;BME280;39219;53.678;9.856;2024-02-14T11:30:45;101284.09;;;9.21;95.37
52839;BME280;39219;53.678;9.856;2024-02-14T11:33:17;101278.78;;;9.21;95.36
52839;BME280;39219;53.678;9.856;2024-02-14T11:35:44;101281.25;;;9.27;95.28
52839;BME280;39219;53.678;9.856;2024-02-14T11:38:11;101283.81;;;9.30;95.23
52839;BME280;39219;53.678;9.856;2024-02-14T11:40:38;101281.94;;;9.33;95.46
52839;BME280;39219;53.678;9.856;2024-02-14T11:43:04;101284.25;;;9.44;95.37
52839;BME280;39219;53.678;9.856;2024-02-14T11:45:31;101284.84;;;9.52;95.58
52839;BME280;39219;53.678;9.856;2024-02-14T11:47:57;101285.44;;;9.61;95.59
52839;BME280;39219;53.678;9.856;2024-02-14T11:50:25;101289.81;;;9.62;95.22
52839;BME280;39219;53.678;9.856;2024-02-14T11:52:52;101288.31;;;9.55;95.37
52839;BME280;39219;53.678;9.856;2024-02-14T11:55:27;101296.28;;;9.54;95.60
52839;BME280;39219;53.678;9.856;2024-02-14T11:57:53;101292.69;;;9.56;95.32
52839;BME280;39219;53.678;9.856;2024-02-14T12:00:20;101295.34;;;9.56;95.56
52839;BME280;39219;53.678;9.856;2024-02-14T12:02:47;101296.06;;;9.61;95.63
52839;BME280;39219;53.678;9.856;2024-02-14T12:05:15;101297.66;;;9.67;95.52
52839;BME280;39219;53.678;9.856;2024-02-14T12:07:43;101285.94;;;9.72;95.64
52839;BME280;39219;53.678;9.856;2024-02-14T12:10:10;101305.31;;;9.76;95.52
52839;BME280;39219;53.678;9.856;2024-02-14T12:12:37;101297.25;;;9.79;95.56
52839;BME280;39219;53.678;9.856;2024-02-14T12:15:05;101293.53;;;9.84;95.50
52839;BME280;39219;53.678;9.856;2024-02-14T12:17:31;101297.03;;;9.85;95.66
52839;BME280;39219;53.678;9.856;2024-02-14T12:20:05;101297.03;;;9.85;95.88
52839;BME280;39219;53.678;9.856;2024-02-14T12:22:32;101298.63;;;9.91;95.58
52839;BME280;39219;53.678;9.856;2024-02-14T12:25:00;101305.59;;;9.93;95.58
52839;BME280;39219;53.678;9.856;2024-02-14T12:27:27;101294.81;;;9.98;95.65
52839;BME280;39219;53.678;9.856;2024-02-14T12:29:57;101299.81;;;10.07;95.62
52839;BME280;39219;53.678;9.856;2024-02-14T12:32:24;101302.25;;;10.14;95.51
52839;BME280;39219;53.678;9.856;2024-02-14T12:34:50;101306.00;;;10.07;95.52
52839;BME280;39219;53.678;9.856;2024-02-14T12:37:17;101299.63;;;10.13;95.37
52839;BME280;39219;53.678;9.856;2024-02-14T12:39:43;101306.81;;;10.09;95.47
52839;BME280;39219;53.678;9.856;2024-02-14T12:42:11;101303.25;;;10.12;95.54
52839;BME280;39219;53.678;9.856;2024-02-14T12:44:38;101304.91;;;10.14;95.42
52839;BME280;39219;53.678;9.856;2024-02-14T12:47:04;101310.94;;;10.19;95.56
52839;BME280;39219;53.678;9.856;2024-02-14T12:49:31;101304.06;;;10.14;95.55
52839;BME280;39219;53.678;9.856;2024-02-14T12:51:58;101307.41;;;10.19;95.92
52839;BME280;39219;53.678;9.856;2024-02-14T12:54:24;101309.09;;;10.21;95.89
52839;BME280;39219;53.678;9.856;2024-02-14T12:56:51;101303.78;;;10.21;95.68
52839;BME280;39219;53.678;9.856;2024-02-14T12:59:19;101312.63;;;10.22;95.98